sensor_id;sensor_type;location;lat;lon;timestamp;P1;durP1;ratioP1;P2;durP2;ratioP2
70169;SDS011;57543;45.442;9.212;2023-04-25T00:00:08;4.75;;;1.95;;
70169;SDS011;57543;45.442;9.212;2023-04-25T00:03:15;3.47;;;1.85;;
70169;SDS011;57543;45.442;9.212;2023-04-25T00:06:21;4.67;;;2.00;;
70169;SDS011;57543;45.442;9.212;2023-04-25T00:09:24;3.95;;;1.80;;
70169;SDS011;57543;45.442;9.212;2023-04-25T00:12:28;3.67;;;2.20;;
70169;SDS011;57543;45.442;9.212;2023-04-25T00:15:31;4.10;;;2.30;;
70169;SDS011;57543;45.442;9.212;2023-04-25T00:18:35;5.30;;;2.17;;
70169;SDS011;57543;45.442;9.212;2023-04-25T00:21:39;3.80;;;2.20;;
70169;SDS011;57543;45.442;9.212;2023-04-25T00:24:46;4.53;;;2.30;;
70169;SDS011;57543;45.442;9.212;2023-04-25T00:27:49;4.00;;;2.25;;
70169;SDS011;57543;45.442;9.212;2023-04-25T00:30:52;3.80;;;2.15;;
70169;SDS011;57543;45.442;9.212;2023-04-25T00:33:56;4.57;;;1.95;;
70169;SDS011;57543;45.442;9.212;2023-04-25T00:37:00;4.33;;;2.10;;
70169;SDS011;57543;45.442;9.212;2023-04-25T00:40:07;3.25;;;1.80;;
70169;SDS011;57543;45.442;9.212;2023-04-25T00:43:11;4.85;;;2.28;;
70169;SDS011;57543;45.442;9.212;2023-04-25T00:46:15;3.53;;;2.03;;
70169;SDS011;57543;45.442;9.212;2023-04-25T00:49:18;4.30;;;2.35;;
70169;SDS011;57543;45.442;9.212;2023-04-25T00:52:22;3.53;;;1.80;;
70169;SDS011;57543;45.442;9.212;2023-04-25T00:55:25;4.22;;;2.00;;
70169;SDS011;57543;45.442;9.212;2023-04-25T00:58:29;3.20;;;1.65;;
70169;SDS011;57543;45.442;9.212;2023-04-25T01:01:35;4.22;;;2.13;;
70169;SDS011;57543;45.442;9.212;2023-04-25T01:04:39;3.85;;;2.03;;
70169;SDS011;57543;45.442;9.212;2023-04-25T01:07:42;5.30;;;2.13;;
70169;SDS011;57543;45.442;9.212;2023-04-25T01:10:46;4.63;;;1.95;;
70169;SDS011;57543;45.442;9.212;2023-04-25T01:13:50;4.13;;;2.08;;
70169;SDS011;57543;45.442;9.212;2023-04-25T01:16:54;4.55;;;2.20;;
70169;SDS011;57543;45.442;9.212;2023-04-25T01:19:58;3.58;;;1.98;;
70169;SDS011;57543;45.442;9.212;2023-04-25T01:23:02;4.40;;;2.20;;
70169;SDS011;57543;45.442;9.212;2023-04-25T01:26:06;4.15;;;2.10;;
70169;SDS011;57543;45.442;9.212;2023-04-25T01:29:13;4.63;;;2.30;;
70169;SDS011;57543;45.442;9.212;2023-04-25T01:32:17;3.78;;;1.95;;
70169;SDS011;57543;45.442;9.212;2023-04-25T01:35:21;3.50;;;1.88;;
70169;SDS011;57543;45.442;9.212;2023-04-25T01:38:30;3.80;;;1.87;;
70169;SDS011;57543;45.442;9.212;2023-04-25T01:41:34;4.50;;;2.10;;
70169;SDS011;57543;45.442;9.212;2023-04-25T01:44:38;3.90;;;1.98;;
70169;SDS011;57543;45.442;9.212;2023-04-25T01:47:42;3.83;;;2.38;;
70169;SDS011;57543;45.442;9.212;2023-04-25T01:50:47;4.43;;;2.25;;
70169;SDS011;57543;45.442;9.212;2023-04-25T01:53:51;4.40;;;2.00;;
70169;SDS011;57543;45.442;9.212;2023-04-25T01:56:56;3.92;;;2.03;;
70169;SDS011;57543;45.442;9.212;2023-04-25T02:00:02;3.95;;;2.10;;
70169;SDS011;57543;45.442;9.212;2023-04-25T02:03:16;3.60;;;1.95;;
70169;SDS011;57543;45.442;9.212;2023-04-25T02:06:20;3.90;;;2.10;;
70169;SDS011;57543;45.442;9.212;2023-04-25T02:09:25;4.80;;;2.20;;
70169;SDS011;57543;45.442;9.212;2023-04-25T02:12:32;3.97;;;2.28;;
70169;SDS011;57543;45.442;9.212;2023-04-25T02:15:38;4.45;;;2.30;;
70169;SDS011;57543;45.442;9.212;2023-04-25T02:18:51;3.60;;;1.90;;
70169;SDS011;57543;45.442;9.212;2023-04-25T02:21:56;4.70;;;2.60;;
70169;SDS011;57543;45.442;9.212;2023-04-25T02:25:00;4.70;;;2.90;;
70169;SDS011;57543;45.442;9.212;2023-04-25T02:28:04;3.85;;;2.20;;
70169;SDS011;57543;45.442;9.212;2023-04-25T02:31:08;4.03;;;2.35;;
70169;SDS011;57543;45.442;9.212;2023-04-25T02:34:12;4.50;;;2.67;;
70169;SDS011;57543;45.442;9.212;2023-04-25T02:37:15;4.72;;;2.65;;
70169;SDS011;57543;45.442;9.212;2023-04-25T02:40:22;4.43;;;2.53;;
70169;SDS011;57543;45.442;9.212;2023-04-25T02:43:25;4.93;;;2.83;;
70169;SDS011;57543;45.442;9.212;2023-04-25T02:46:29;6.10;;;3.28;;
70169;SDS011;57543;45.442;9.212;2023-04-25T02:49:33;5.53;;;3.03;;
70169;SDS011;57543;45.442;9.212;2023-04-25T02:52:36;5.43;;;3.15;;
70169;SDS011;57543;45.442;9.212;2023-04-25T02:55:49;6.67;;;3.13;;
70169;SDS011;57543;45.442;9.212;2023-04-25T02:58:53;4.70;;;2.60;;
70169;SDS011;57543;45.442;9.212;2023-04-25T03:01:56;4.85;;;3.20;;
70169;SDS011;57543;45.442;9.212;2023-04-25T03:05:00;4.90;;;2.92;;
70169;SDS011;57543;45.442;9.212;2023-04-25T03:08:05;6.47;;;3.03;;
70169;SDS011;57543;45.442;9.212;2023-04-25T03:11:10;5.13;;;3.20;;
70169;SDS011;57543;45.442;9.212;2023-04-25T03:14:16;8.90;;;3.60;;
70169;SDS011;57543;45.442;9.212;2023-04-25T03:17:21;5.28;;;3.35;;
70169;SDS011;57543;45.442;9.212;2023-04-25T03:20:26;6.28;;;3.05;;
70169;SDS011;57543;45.442;9.212;2023-04-25T03:23:29;5.65;;;2.80;;
70169;SDS011;57543;45.442;9.212;2023-04-25T03:26:33;4.73;;;2.90;;
70169;SDS011;57543;45.442;9.212;2023-04-25T03:29:37;4.70;;;2.60;;
70169;SDS011;57543;45.442;9.212;2023-04-25T03:32:42;6.03;;;2.92;;
70169;SDS011;57543;45.442;9.212;2023-04-25T03:35:46;4.82;;;2.50;;
70169;SDS011;57543;45.442;9.212;2023-04-25T03:38:49;6.78;;;3.55;;
70169;SDS011;57543;45.442;9.212;2023-04-25T03:41:54;5.90;;;2.67;;
70169;SDS011;57543;45.442;9.212;2023-04-25T03:44:58;5.90;;;2.58;;
70169;SDS011;57543;45.442;9.212;2023-04-25T03:48:02;6.95;;;3.42;;
70169;SDS011;57543;45.442;9.212;2023-04-25T03:51:07;5.30;;;2.70;;
70169;SDS011;57543;45.442;9.212;2023-04-25T03:54:16;4.97;;;2.72;;
70169;SDS011;57543;45.442;9.212;2023-04-25T03:57:31;4.20;;;2.30;;
70169;SDS011;57543;45.442;9.212;2023-04-25T04:00:35;4.57;;;2.50;;
70169;SDS011;57543;45.442;9.212;2023-04-25T04:03:39;4.82;;;2.67;;
70169;SDS011;57543;45.442;9.212;2023-04-25T04:06:43;5.75;;;2.70;;
70169;SDS011;57543;45.442;9.212;2023-04-25T04:09:53;5.60;;;3.10;;
70169;SDS011;57543;45.442;9.212;2023-04-25T04:13:02;5.20;;;2.43;;
70169;SDS011;57543;45.442;9.212;2023-04-25T04:16:06;6.35;;;2.60;;
70169;SDS011;57543;45.442;9.212;2023-04-25T04:19:10;6.72;;;2.90;;
70169;SDS011;57543;45.442;9.212;2023-04-25T04:22:16;7.53;;;3.05;;
70169;SDS011;57543;45.442;9.212;2023-04-25T04:25:20;5.10;;;2.72;;
70169;SDS011;57543;45.442;9.212;2023-04-25T04:28:40;5.90;;;2.67;;
70169;SDS011;57543;45.442;9.212;2023-04-25T04:32:03;4.50;;;2.60;;
70169;SDS011;57543;45.442;9.212;2023-04-25T04:35:08;6.97;;;3.00;;
70169;SDS011;57543;45.442;9.212;2023-04-25T04:38:12;5.40;;;2.83;;
70169;SDS011;57543;45.442;9.212;2023-04-25T04:41:18;5.55;;;2.88;;
70169;SDS011;57543;45.442;9.212;2023-04-25T04:44:47;5.00;;;2.27;;
70169;SDS011;57543;45.442;9.212;2023-04-25T04:48:02;5.38;;;2.30;;
70169;SDS011;57543;45.442;9.212;2023-04-25T04:51:25;4.65;;;2.50;;
70169;SDS011;57543;45.442;9.212;2023-04-25T04:54:31;5.07;;;2.80;;
70169;SDS011;57543;45.442;9.212;2023-04-25T04:57:53;7.28;;;2.78;;
70169;SDS011;57543;45.442;9.212;2023-04-25T05:01:07;5.43;;;2.77;;
70169;SDS011;57543;45.442;9.212;2023-04-25T05:04:40;8.43;;;3.42;;
70169;SDS011;57543;45.442;9.212;2023-04-25T05:07:56;5.85;;;3.10;;
70169;SDS011;57543;45.442;9.212;2023-04-25T05:11:20;6.30;;;2.65;;
70169;SDS011;57543;45.442;9.212;2023-04-25T05:14:47;5.47;;;2.85;;
70169;SDS011;57543;45.442;9.212;2023-04-25T05:18:09;5.10;;;2.77;;
70169;SDS011;57543;45.442;9.212;2023-04-25T05:21:22;5.88;;;2.90;;
70169;SDS011;57543;45.442;9.212;2023-04-25T05:24:43;5.20;;;2.83;;
70169;SDS011;57543;45.442;9.212;2023-04-25T05:28:06;4.95;;;2.95;;
70169;SDS011;57543;45.442;9.212;2023-04-25T05:31:22;5.72;;;3.08;;
70169;SDS011;57543;45.442;9.212;2023-04-25T05:34:35;7.30;;;3.13;;
70169;SDS011;57543;45.442;9.212;2023-04-25T05:37:42;5.05;;;3.10;;
70169;SDS011;57543;45.442;9.212;2023-04-25T05:40:47;5.00;;;3.00;;
70169;SDS011;57543;45.442;9.212;2023-04-25T05:44:15;5.03;;;2.60;;
70169;SDS011;57543;45.442;9.212;2023-04-25T05:47:26;6.40;;;3.15;;
70169;SDS011;57543;45.442;9.212;2023-04-25T05:50:54;4.80;;;2.90;;
70169;SDS011;57543;45.442;9.212;2023-04-25T05:54:16;5.45;;;3.03;;
70169;SDS011;57543;45.442;9.212;2023-04-25T05:57:24;5.22;;;3.00;;
70169;SDS011;57543;45.442;9.212;2023-04-25T06:00:30;5.25;;;2.83;;
70169;SDS011;57543;45.442;9.212;2023-04-25T06:03:34;5.85;;;2.95;;
70169;SDS011;57543;45.442;9.212;2023-04-25T06:06:38;5.33;;;3.10;;
70169;SDS011;57543;45.442;9.212;2023-04-25T06:09:42;6.43;;;3.17;;
70169;SDS011;57543;45.442;9.212;2023-04-25T06:12:46;4.55;;;2.60;;
70169;SDS011;57543;45.442;9.212;2023-04-25T06:15:52;5.18;;;3.05;;
70169;SDS011;57543;45.442;9.212;2023-04-25T06:18:55;4.75;;;2.67;;
70169;SDS011;57543;45.442;9.212;2023-04-25T06:21:59;4.53;;;2.57;;
70169;SDS011;57543;45.442;9.212;2023-04-25T06:25:03;4.05;;;2.55;;
70169;SDS011;57543;45.442;9.212;2023-04-25T06:28:07;4.05;;;2.38;;
70169;SDS011;57543;45.442;9.212;2023-04-25T06:31:12;4.13;;;2.38;;
70169;SDS011;57543;45.442;9.212;2023-04-25T06:34:16;7.65;;;2.72;;
70169;SDS011;57543;45.442;9.212;2023-04-25T06:37:19;4.30;;;2.23;;
70169;SDS011;57543;45.442;9.212;2023-04-25T06:40:23;4.55;;;2.40;;
70169;SDS011;57543;45.442;9.212;2023-04-25T06:43:26;3.95;;;2.28;;
70169;SDS011;57543;45.442;9.212;2023-04-25T06:46:33;4.13;;;2.30;;
70169;SDS011;57543;45.442;9.212;2023-04-25T06:49:38;5.03;;;2.17;;
70169;SDS011;57543;45.442;9.212;2023-04-25T06:52:43;4.53;;;2.10;;
70169;SDS011;57543;45.442;9.212;2023-04-25T06:55:46;5.70;;;2.25;;
70169;SDS011;57543;45.442;9.212;2023-04-25T06:58:59;4.10;;;2.20;;
70169;SDS011;57543;45.442;9.212;2023-04-25T07:02:09;4.85;;;2.15;;
70169;SDS011;57543;45.442;9.212;2023-04-25T07:05:13;6.40;;;2.50;;
70169;SDS011;57543;45.442;9.212;2023-04-25T07:08:17;4.83;;;1.83;;
70169;SDS011;57543;45.442;9.212;2023-04-25T07:11:21;4.43;;;1.90;;
70169;SDS011;57543;45.442;9.212;2023-04-25T07:14:25;4.05;;;1.90;;
70169;SDS011;57543;45.442;9.212;2023-04-25T07:17:29;4.40;;;2.40;;
70169;SDS011;57543;45.442;9.212;2023-04-25T07:20:33;4.97;;;2.30;;
70169;SDS011;57543;45.442;9.212;2023-04-25T07:23:38;6.07;;;2.47;;
70169;SDS011;57543;45.442;9.212;2023-04-25T07:26:47;4.13;;;2.22;;
70169;SDS011;57543;45.442;9.212;2023-04-25T07:30:04;6.25;;;2.40;;
70169;SDS011;57543;45.442;9.212;2023-04-25T07:33:09;5.35;;;2.40;;
70169;SDS011;57543;45.442;9.212;2023-04-25T07:36:13;6.50;;;2.63;;
70169;SDS011;57543;45.442;9.212;2023-04-25T07:39:18;4.80;;;2.30;;
70169;SDS011;57543;45.442;9.212;2023-04-25T07:42:22;6.38;;;2.72;;
70169;SDS011;57543;45.442;9.212;2023-04-25T07:45:26;5.20;;;2.83;;
70169;SDS011;57543;45.442;9.212;2023-04-25T07:48:30;6.78;;;2.60;;
70169;SDS011;57543;45.442;9.212;2023-04-25T07:51:34;4.65;;;2.60;;
70169;SDS011;57543;45.442;9.212;2023-04-25T07:54:43;5.20;;;3.00;;
70169;SDS011;57543;45.442;9.212;2023-04-25T07:57:53;5.13;;;2.60;;
70169;SDS011;57543;45.442;9.212;2023-04-25T08:00:57;6.97;;;3.00;;
70169;SDS011;57543;45.442;9.212;2023-04-25T08:04:21;5.85;;;3.33;;
70169;SDS011;57543;45.442;9.212;2023-04-25T08:07:30;6.07;;;3.25;;
70169;SDS011;57543;45.442;9.212;2023-04-25T08:10:38;6.97;;;3.50;;
70169;SDS011;57543;45.442;9.212;2023-04-25T08:13:45;5.97;;;2.78;;
70169;SDS011;57543;45.442;9.212;2023-04-25T08:16:48;8.32;;;3.55;;
70169;SDS011;57543;45.442;9.212;2023-04-25T08:19:53;18.35;;;3.50;;
70169;SDS011;57543;45.442;9.212;2023-04-25T08:23:02;5.07;;;3.05;;
70169;SDS011;57543;45.442;9.212;2023-04-25T08:26:24;8.30;;;3.03;;
70169;SDS011;57543;45.442;9.212;2023-04-25T08:29:29;5.82;;;3.58;;
70169;SDS011;57543;45.442;9.212;2023-04-25T08:32:32;4.97;;;2.85;;
70169;SDS011;57543;45.442;9.212;2023-04-25T08:35:53;6.68;;;3.33;;
70169;SDS011;57543;45.442;9.212;2023-04-25T08:38:59;8.20;;;3.13;;
70169;SDS011;57543;45.442;9.212;2023-04-25T08:42:05;5.17;;;2.60;;
70169;SDS011;57543;45.442;9.212;2023-04-25T08:45:13;4.95;;;2.70;;
70169;SDS011;57543;45.442;9.212;2023-04-25T08:48:19;6.82;;;2.85;;
70169;SDS011;57543;45.442;9.212;2023-04-25T08:51:23;5.70;;;2.50;;
70169;SDS011;57543;45.442;9.212;2023-04-25T08:54:31;5.65;;;2.97;;
70169;SDS011;57543;45.442;9.212;2023-04-25T08:57:38;8.23;;;3.10;;
70169;SDS011;57543;45.442;9.212;2023-04-25T09:00:49;5.03;;;2.10;;
70169;SDS011;57543;45.442;9.212;2023-04-25T09:03:54;6.15;;;2.70;;
70169;SDS011;57543;45.442;9.212;2023-04-25T09:06:57;5.47;;;2.53;;
70169;SDS011;57543;45.442;9.212;2023-04-25T09:10:05;4.65;;;2.85;;
70169;SDS011;57543;45.442;9.212;2023-04-25T09:13:13;5.37;;;2.77;;
70169;SDS011;57543;45.442;9.212;2023-04-25T09:20:15;5.47;;;2.80;;
70169;SDS011;57543;45.442;9.212;2023-04-25T09:23:19;6.03;;;3.00;;
70169;SDS011;57543;45.442;9.212;2023-04-25T09:26:24;6.32;;;3.47;;
70169;SDS011;57543;45.442;9.212;2023-04-25T09:29:32;5.90;;;2.80;;
70169;SDS011;57543;45.442;9.212;2023-04-25T09:32:37;6.95;;;2.95;;
70169;SDS011;57543;45.442;9.212;2023-04-25T09:35:42;6.05;;;2.90;;
70169;SDS011;57543;45.442;9.212;2023-04-25T09:38:53;7.53;;;3.13;;
70169;SDS011;57543;45.442;9.212;2023-04-25T09:42:02;6.70;;;2.97;;
70169;SDS011;57543;45.442;9.212;2023-04-25T09:45:08;4.90;;;2.60;;
70169;SDS011;57543;45.442;9.212;2023-04-25T09:48:18;6.85;;;3.70;;
70169;SDS011;57543;45.442;9.212;2023-04-25T09:51:25;7.47;;;3.40;;
70169;SDS011;57543;45.442;9.212;2023-04-25T09:54:30;8.32;;;3.53;;
70169;SDS011;57543;45.442;9.212;2023-04-25T09:57:46;8.05;;;3.00;;
70169;SDS011;57543;45.442;9.212;2023-04-25T10:00:53;8.90;;;3.10;;
70169;SDS011;57543;45.442;9.212;2023-04-25T10:04:12;6.47;;;3.13;;
70169;SDS011;57543;45.442;9.212;2023-04-25T10:07:38;6.55;;;3.05;;
70169;SDS011;57543;45.442;9.212;2023-04-25T10:10:46;5.97;;;3.20;;
70169;SDS011;57543;45.442;9.212;2023-04-25T10:13:51;5.20;;;3.08;;
70169;SDS011;57543;45.442;9.212;2023-04-25T10:16:55;7.37;;;2.50;;
70169;SDS011;57543;45.442;9.212;2023-04-25T10:20:01;5.57;;;3.60;;
70169;SDS011;57543;45.442;9.212;2023-04-25T10:23:13;8.52;;;3.35;;
70169;SDS011;57543;45.442;9.212;2023-04-25T10:26:18;5.32;;;3.20;;
70169;SDS011;57543;45.442;9.212;2023-04-25T10:29:23;7.45;;;3.20;;
70169;SDS011;57543;45.442;9.212;2023-04-25T10:32:30;6.40;;;3.23;;
70169;SDS011;57543;45.442;9.212;2023-04-25T10:35:36;8.32;;;3.13;;
70169;SDS011;57543;45.442;9.212;2023-04-25T10:38:43;5.38;;;3.15;;
70169;SDS011;57543;45.442;9.212;2023-04-25T10:41:52;7.53;;;3.67;;
70169;SDS011;57543;45.442;9.212;2023-04-25T10:45:02;8.68;;;3.53;;
70169;SDS011;57543;45.442;9.212;2023-04-25T10:48:27;6.77;;;3.57;;
70169;SDS011;57543;45.442;9.212;2023-04-25T10:51:33;6.63;;;3.20;;
70169;SDS011;57543;45.442;9.212;2023-04-25T10:54:42;5.90;;;3.25;;
70169;SDS011;57543;45.442;9.212;2023-04-25T10:57:48;7.63;;;3.28;;
70169;SDS011;57543;45.442;9.212;2023-04-25T11:00:54;5.38;;;2.97;;
70169;SDS011;57543;45.442;9.212;2023-04-25T11:03:58;6.33;;;3.30;;
70169;SDS011;57543;45.442;9.212;2023-04-25T11:10:10;6.82;;;3.47;;
70169;SDS011;57543;45.442;9.212;2023-04-25T11:13:13;7.93;;;3.30;;
70169;SDS011;57543;45.442;9.212;2023-04-25T11:16:17;6.75;;;3.25;;
70169;SDS011;57543;45.442;9.212;2023-04-25T11:19:21;5.50;;;2.80;;
70169;SDS011;57543;45.442;9.212;2023-04-25T11:22:27;4.72;;;2.78;;
70169;SDS011;57543;45.442;9.212;2023-04-25T11:25:30;5.97;;;2.78;;
70169;SDS011;57543;45.442;9.212;2023-04-25T11:28:34;6.68;;;3.00;;
70169;SDS011;57543;45.442;9.212;2023-04-25T11:31:38;6.47;;;3.20;;
70169;SDS011;57543;45.442;9.212;2023-04-25T11:34:46;4.40;;;2.40;;
70169;SDS011;57543;45.442;9.212;2023-04-25T11:37:49;7.22;;;3.10;;
70169;SDS011;57543;45.442;9.212;2023-04-25T11:40:56;6.85;;;3.38;;
70169;SDS011;57543;45.442;9.212;2023-04-25T11:44:01;4.75;;;2.90;;
70169;SDS011;57543;45.442;9.212;2023-04-25T11:47:06;5.53;;;2.83;;
70169;SDS011;57543;45.442;9.212;2023-04-25T11:50:09;5.73;;;3.10;;
70169;SDS011;57543;45.442;9.212;2023-04-25T11:53:14;5.28;;;2.70;;
70169;SDS011;57543;45.442;9.212;2023-04-25T11:56:20;7.07;;;2.95;;
70169;SDS011;57543;45.442;9.212;2023-04-25T11:59:24;7.35;;;3.63;;
70169;SDS011;57543;45.442;9.212;2023-04-25T12:02:31;7.45;;;2.70;;
70169;SDS011;57543;45.442;9.212;2023-04-25T12:05:35;9.70;;;2.87;;
70169;SDS011;57543;45.442;9.212;2023-04-25T12:08:58;5.30;;;3.08;;
70169;SDS011;57543;45.442;9.212;2023-04-25T12:12:03;6.50;;;2.92;;
70169;SDS011;57543;45.442;9.212;2023-04-25T12:18:19;7.13;;;2.67;;
70169;SDS011;57543;45.442;9.212;2023-04-25T12:21:34;4.37;;;2.73;;
70169;SDS011;57543;45.442;9.212;2023-04-25T12:24:37;5.40;;;2.55;;
70169;SDS011;57543;45.442;9.212;2023-04-25T12:27:41;6.80;;;2.60;;
70169;SDS011;57543;45.442;9.212;2023-04-25T12:31:01;4.43;;;2.63;;
70169;SDS011;57543;45.442;9.212;2023-04-25T12:34:06;4.88;;;2.67;;
70169;SDS011;57543;45.442;9.212;2023-04-25T12:37:10;5.27;;;2.57;;
70169;SDS011;57543;45.442;9.212;2023-04-25T12:40:14;4.38;;;2.72;;
70169;SDS011;57543;45.442;9.212;2023-04-25T12:43:18;5.03;;;2.70;;
70169;SDS011;57543;45.442;9.212;2023-04-25T12:46:22;5.18;;;2.65;;
70169;SDS011;57543;45.442;9.212;2023-04-25T12:49:26;5.45;;;3.05;;
70169;SDS011;57543;45.442;9.212;2023-04-25T12:52:30;5.30;;;2.50;;
70169;SDS011;57543;45.442;9.212;2023-04-25T12:55:34;4.32;;;2.40;;
70169;SDS011;57543;45.442;9.212;2023-04-25T12:58:37;5.15;;;2.55;;
70169;SDS011;57543;45.442;9.212;2023-04-25T13:01:41;5.20;;;2.40;;
70169;SDS011;57543;45.442;9.212;2023-04-25T13:04:44;6.50;;;2.60;;
70169;SDS011;57543;45.442;9.212;2023-04-25T13:07:48;4.47;;;2.37;;
70169;SDS011;57543;45.442;9.212;2023-04-25T13:10:52;4.25;;;1.73;;
70169;SDS011;57543;45.442;9.212;2023-04-25T13:13:56;5.63;;;2.00;;
70169;SDS011;57543;45.442;9.212;2023-04-25T13:16:59;3.53;;;1.50;;
70169;SDS011;57543;45.442;9.212;2023-04-25T13:20:04;3.35;;;1.50;;
70169;SDS011;57543;45.442;9.212;2023-04-25T13:23:12;4.53;;;1.77;;
70169;SDS011;57543;45.442;9.212;2023-04-25T13:26:15;5.07;;;1.63;;
70169;SDS011;57543;45.442;9.212;2023-04-25T13:29:19;3.25;;;1.20;;
70169;SDS011;57543;45.442;9.212;2023-04-25T13:32:23;2.50;;;1.02;;
70169;SDS011;57543;45.442;9.212;2023-04-25T13:35:29;3.80;;;1.00;;
70169;SDS011;57543;45.442;9.212;2023-04-25T13:38:33;3.70;;;0.90;;
70169;SDS011;57543;45.442;9.212;2023-04-25T13:41:37;4.55;;;1.45;;
70169;SDS011;57543;45.442;9.212;2023-04-25T13:44:43;2.67;;;0.93;;
70169;SDS011;57543;45.442;9.212;2023-04-25T13:47:47;3.22;;;1.20;;
70169;SDS011;57543;45.442;9.212;2023-04-25T13:50:50;3.72;;;1.33;;
70169;SDS011;57543;45.442;9.212;2023-04-25T13:53:57;2.83;;;1.37;;
70169;SDS011;57543;45.442;9.212;2023-04-25T13:57:01;4.47;;;1.50;;
70169;SDS011;57543;45.442;9.212;2023-04-25T14:00:05;3.85;;;1.58;;
70169;SDS011;57543;45.442;9.212;2023-04-25T14:03:13;3.90;;;1.55;;
70169;SDS011;57543;45.442;9.212;2023-04-25T14:06:16;3.78;;;1.33;;
70169;SDS011;57543;45.442;9.212;2023-04-25T14:09:25;3.43;;;1.40;;
70169;SDS011;57543;45.442;9.212;2023-04-25T14:12:30;2.60;;;1.30;;
70169;SDS011;57543;45.442;9.212;2023-04-25T14:15:34;3.08;;;1.20;;
70169;SDS011;57543;45.442;9.212;2023-04-25T14:18:38;2.53;;;1.00;;
70169;SDS011;57543;45.442;9.212;2023-04-25T14:21:42;4.03;;;1.20;;
70169;SDS011;57543;45.442;9.212;2023-04-25T14:24:45;3.43;;;1.43;;
70169;SDS011;57543;45.442;9.212;2023-04-25T14:27:49;4.53;;;1.50;;
70169;SDS011;57543;45.442;9.212;2023-04-25T14:30:55;3.33;;;1.27;;
70169;SDS011;57543;45.442;9.212;2023-04-25T14:33:59;3.90;;;1.40;;
70169;SDS011;57543;45.442;9.212;2023-04-25T14:37:03;5.35;;;1.90;;
70169;SDS011;57543;45.442;9.212;2023-04-25T14:40:07;3.37;;;1.40;;
70169;SDS011;57543;45.442;9.212;2023-04-25T14:43:16;3.75;;;1.40;;
70169;SDS011;57543;45.442;9.212;2023-04-25T14:46:20;3.33;;;1.35;;
70169;SDS011;57543;45.442;9.212;2023-04-25T14:49:25;4.78;;;1.73;;
70169;SDS011;57543;45.442;9.212;2023-04-25T14:52:29;3.00;;;1.63;;
70169;SDS011;57543;45.442;9.212;2023-04-25T14:55:34;3.20;;;1.50;;
70169;SDS011;57543;45.442;9.212;2023-04-25T14:58:38;3.15;;;1.40;;
70169;SDS011;57543;45.442;9.212;2023-04-25T15:01:43;3.50;;;1.50;;
70169;SDS011;57543;45.442;9.212;2023-04-25T15:04:49;2.88;;;1.45;;
70169;SDS011;57543;45.442;9.212;2023-04-25T15:07:53;2.67;;;1.30;;
70169;SDS011;57543;45.442;9.212;2023-04-25T15:10:59;3.23;;;1.20;;
70169;SDS011;57543;45.442;9.212;2023-04-25T15:14:03;5.32;;;1.15;;
70169;SDS011;57543;45.442;9.212;2023-04-25T15:17:07;3.22;;;1.17;;
70169;SDS011;57543;45.442;9.212;2023-04-25T15:20:11;4.43;;;1.55;;
70169;SDS011;57543;45.442;9.212;2023-04-25T15:23:19;4.85;;;2.60;;
70169;SDS011;57543;45.442;9.212;2023-04-25T15:26:23;3.40;;;1.53;;
70169;SDS011;57543;45.442;9.212;2023-04-25T15:29:27;3.85;;;1.85;;
70169;SDS011;57543;45.442;9.212;2023-04-25T15:32:34;3.80;;;1.55;;
70169;SDS011;57543;45.442;9.212;2023-04-25T15:35:37;3.33;;;1.20;;
70169;SDS011;57543;45.442;9.212;2023-04-25T15:38:41;3.92;;;1.20;;
70169;SDS011;57543;45.442;9.212;2023-04-25T15:41:46;4.13;;;1.27;;
70169;SDS011;57543;45.442;9.212;2023-04-25T15:44:49;4.22;;;1.88;;
70169;SDS011;57543;45.442;9.212;2023-04-25T15:47:54;3.88;;;1.60;;
70169;SDS011;57543;45.442;9.212;2023-04-25T15:50:59;3.95;;;1.77;;
70169;SDS011;57543;45.442;9.212;2023-04-25T15:54:03;4.63;;;1.52;;
70169;SDS011;57543;45.442;9.212;2023-04-25T15:57:06;2.73;;;1.30;;
70169;SDS011;57543;45.442;9.212;2023-04-25T16:00:15;5.47;;;1.73;;
70169;SDS011;57543;45.442;9.212;2023-04-25T16:03:24;2.83;;;1.20;;
70169;SDS011;57543;45.442;9.212;2023-04-25T16:06:34;2.33;;;1.02;;
70169;SDS011;57543;45.442;9.212;2023-04-25T16:09:38;2.90;;;1.35;;
70169;SDS011;57543;45.442;9.212;2023-04-25T16:12:45;4.20;;;1.60;;
70169;SDS011;57543;45.442;9.212;2023-04-25T16:15:51;4.15;;;1.73;;
70169;SDS011;57543;45.442;9.212;2023-04-25T16:18:54;3.03;;;1.13;;
70169;SDS011;57543;45.442;9.212;2023-04-25T16:21:57;3.50;;;1.48;;
70169;SDS011;57543;45.442;9.212;2023-04-25T16:25:02;5.60;;;1.85;;
70169;SDS011;57543;45.442;9.212;2023-04-25T16:28:09;2.47;;;1.07;;
70169;SDS011;57543;45.442;9.212;2023-04-25T16:31:13;3.90;;;1.45;;
70169;SDS011;57543;45.442;9.212;2023-04-25T16:34:17;2.78;;;1.25;;
70169;SDS011;57543;45.442;9.212;2023-04-25T16:37:20;3.47;;;1.10;;
70169;SDS011;57543;45.442;9.212;2023-04-25T16:40:23;3.58;;;1.30;;
70169;SDS011;57543;45.442;9.212;2023-04-25T16:43:26;3.07;;;1.20;;
70169;SDS011;57543;45.442;9.212;2023-04-25T16:46:33;4.72;;;1.45;;
70169;SDS011;57543;45.442;9.212;2023-04-25T16:49:40;3.00;;;1.40;;
70169;SDS011;57543;45.442;9.212;2023-04-25T16:52:44;3.45;;;1.60;;
70169;SDS011;57543;45.442;9.212;2023-04-25T16:55:48;4.40;;;1.63;;
70169;SDS011;57543;45.442;9.212;2023-04-25T16:58:54;4.00;;;1.40;;
70169;SDS011;57543;45.442;9.212;2023-04-25T17:01:57;3.40;;;1.50;;
70169;SDS011;57543;45.442;9.212;2023-04-25T17:05:01;4.82;;;1.58;;
70169;SDS011;57543;45.442;9.212;2023-04-25T17:08:05;3.78;;;1.45;;
70169;SDS011;57543;45.442;9.212;2023-04-25T17:11:09;4.07;;;1.50;;
70169;SDS011;57543;45.442;9.212;2023-04-25T17:14:13;4.30;;;1.50;;
70169;SDS011;57543;45.442;9.212;2023-04-25T17:17:16;3.22;;;1.50;;
70169;SDS011;57543;45.442;9.212;2023-04-25T17:20:20;3.05;;;1.30;;
70169;SDS011;57543;45.442;9.212;2023-04-25T17:23:24;3.15;;;1.42;;
70169;SDS011;57543;45.442;9.212;2023-04-25T17:26:28;3.67;;;1.50;;
70169;SDS011;57543;45.442;9.212;2023-04-25T17:29:32;3.17;;;1.50;;
70169;SDS011;57543;45.442;9.212;2023-04-25T17:32:37;5.60;;;2.00;;
70169;SDS011;57543;45.442;9.212;2023-04-25T17:35:41;5.05;;;2.22;;
70169;SDS011;57543;45.442;9.212;2023-04-25T17:38:45;6.53;;;2.15;;
70169;SDS011;57543;45.442;9.212;2023-04-25T17:41:49;4.55;;;1.92;;
70169;SDS011;57543;45.442;9.212;2023-04-25T17:44:52;3.93;;;2.23;;
70169;SDS011;57543;45.442;9.212;2023-04-25T17:47:57;4.80;;;2.17;;
70169;SDS011;57543;45.442;9.212;2023-04-25T17:51:01;5.25;;;2.08;;
70169;SDS011;57543;45.442;9.212;2023-04-25T17:54:05;4.13;;;2.20;;
70169;SDS011;57543;45.442;9.212;2023-04-25T17:57:08;4.47;;;2.00;;
70169;SDS011;57543;45.442;9.212;2023-04-25T18:00:12;4.60;;;2.00;;
70169;SDS011;57543;45.442;9.212;2023-04-25T18:03:18;3.80;;;1.80;;
70169;SDS011;57543;45.442;9.212;2023-04-25T18:06:22;3.92;;;2.08;;
70169;SDS011;57543;45.442;9.212;2023-04-25T18:09:26;3.70;;;1.77;;
70169;SDS011;57543;45.442;9.212;2023-04-25T18:12:31;4.03;;;2.17;;
70169;SDS011;57543;45.442;9.212;2023-04-25T18:15:36;4.07;;;1.80;;
70169;SDS011;57543;45.442;9.212;2023-04-25T18:18:39;3.47;;;1.90;;
70169;SDS011;57543;45.442;9.212;2023-04-25T18:21:49;3.30;;;1.92;;
70169;SDS011;57543;45.442;9.212;2023-04-25T18:24:56;3.72;;;2.00;;
70169;SDS011;57543;45.442;9.212;2023-04-25T18:28:00;3.30;;;1.55;;
70169;SDS011;57543;45.442;9.212;2023-04-25T18:31:04;3.87;;;2.10;;
70169;SDS011;57543;45.442;9.212;2023-04-25T18:34:08;3.95;;;1.90;;
70169;SDS011;57543;45.442;9.212;2023-04-25T18:37:13;3.30;;;1.77;;
70169;SDS011;57543;45.442;9.212;2023-04-25T18:40:17;4.57;;;1.73;;
70169;SDS011;57543;45.442;9.212;2023-04-25T18:43:24;4.05;;;1.90;;
70169;SDS011;57543;45.442;9.212;2023-04-25T18:46:28;3.97;;;1.80;;
70169;SDS011;57543;45.442;9.212;2023-04-25T18:49:32;4.75;;;1.60;;
70169;SDS011;57543;45.442;9.212;2023-04-25T18:52:36;3.70;;;1.52;;